Time;durP1;ratioP1;P1;durP2;ratioP2;P2;SDS_P1;SDS_P2;PMS_P1;PMS_P2;Temp;Humidity;BMP_temperature;BMP_pressure;BME280_temperature;BME280_humidity;BME280_pressure;Samples;Min_cycle;Max_cycle;Signal;HPM_P1;HPM_P2
2022/09/12 00:01:37;;;;;;;6.97;6.33;;;;;;;;;;6271002;28;20028;-78
2022/09/12 00:04:37;;;;;;;2.17;2.07;;;;;;;;;;6268777;28;20013;-78
2022/09/12 00:07:37;;;;;;;8.43;2.90;;;;;;;;;;6271214;28;20017;-78
2022/09/12 00:10:42;;;;;;;7.03;4.30;;;;;;;;;;6275695;28;20066;-78
2022/09/12 00:13:42;;;;;;;6.28;5.75;;;;;;;;;;6277021;28;20013;-78
2022/09/12 00:16:42;;;;;;;5.33;3.47;;;;;;;;;;6272830;28;20051;-78
2022/09/12 00:19:42;;;;;;;7.63;5.57;;;;;;;;;;6271129;28;20028;-78
2022/09/12 00:22:43;;;;;;;14.03;7.83;;;;;;;;;;6278035;28;20182;-78
2022/09/12 00:25:44;;;;;;;5.30;4.82;;;;;;;;;;6275878;28;20040;-78
2022/09/12 00:28:44;;;;;;;3.33;3.17;;;;;;;;;;6254383;28;20013;-78
2022/09/12 00:31:44;;;;;;;7.17;6.63;;;;;;;;;;6270140;28;20128;-78
2022/09/12 00:34:44;;;;;;;3.17;2.97;;;;;;;;;;6269762;28;20036;-78
2022/09/12 00:37:45;;;;;;;4.93;4.47;;;;;;;;;;6251119;28;20039;-78
2022/09/12 00:40:46;;;;;;;6.47;5.77;;;;;;;;;;6281425;28;20053;-77
2022/09/12 00:43:47;;;;;;;10.43;5.33;;;;;;;;;;6251008;28;20028;-77
2022/09/12 00:46:59;;;;;;;2.75;2.50;;;;;;;;;;6269215;28;20067;-77
2022/09/12 00:50:04;;;;;;;3.95;2.45;;;;;;;;;;6265443;28;20016;-77
2022/09/12 00:53:06;;;;;;;4.15;3.78;;;;;;;;;;6275552;28;20017;-78
2022/09/12 00:56:06;;;;;;;2.30;2.13;;;;;;;;;;6272581;28;20570;-78
2022/09/12 00:59:13;;;;;;;5.03;3.63;;;;;;;;;;6281830;28;20024;-78
2022/09/12 01:02:13;;;;;;;4.45;4.10;;;;;;;;;;6252981;28;20020;-78
2022/09/12 01:05:14;;;;;;;5.20;4.87;;;;;;;;;;6250609;28;20012;-77
2022/09/12 01:08:14;;;;;;;5.10;4.10;;;;;;;;;;6268997;28;20358;-77
2022/09/12 01:11:15;;;;;;;4.17;3.73;;;;;;;;;;6280329;28;20103;-77
2022/09/12 01:14:16;;;;;;;9.17;4.20;;;;;;;;;;6271793;28;20088;-77
2022/09/12 01:17:17;;;;;;;4.85;3.33;;;;;;;;;;6271729;28;20369;-77
2022/09/12 01:20:25;;;;;;;8.37;5.00;;;;;;;;;;6267405;28;20036;-77
2022/09/12 01:23:30;;;;;;;5.53;5.13;;;;;;;;;;6251710;28;20025;-78
2022/09/12 01:26:47;;;;;;;11.82;3.75;;;;;;;;;;6271820;28;20013;-78
2022/09/12 01:30:02;;;;;;;3.42;2.78;;;;;;;;;;6258228;28;20365;-77
2022/09/12 01:33:02;;;;;;;4.22;3.35;;;;;;;;;;6263183;28;20435;-77
2022/09/12 01:36:05;;;;;;;4.82;4.40;;;;;;;;;;6246335;28;20013;-77
2022/09/12 01:39:11;;;;;;;3.50;3.22;;;;;;;;;;6250042;28;20036;-77
2022/09/12 01:42:21;;;;;;;3.38;3.17;;;;;;;;;;6264540;28;20024;-77
2022/09/12 01:45:47;;;;;;;11.93;5.47;;;;;;;;;;6271597;28;20025;-77
2022/09/12 01:49:11;;;;;;;17.75;6.00;;;;;;;;;;6254006;28;20140;-77
2022/09/12 01:52:23;;;;;;;4.35;4.00;;;;;;;;;;6261126;28;20508;-77
2022/09/12 01:55:43;;;;;;;14.02;3.05;;;;;;;;;;6257421;28;20114;-77
2022/09/12 01:58:58;;;;;;;2.90;2.75;;;;;;;;;;6255584;28;20094;-77
2022/09/12 02:02:05;;;;;;;4.35;4.03;;;;;;;;;;6247012;28;20084;-77
2022/09/12 02:05:09;;;;;;;4.53;4.10;;;;;;;;;;6250648;28;20060;-77
2022/09/12 02:08:25;;;;;;;6.47;4.28;;;;;;;;;;6264864;28;20013;-77
2022/09/12 02:11:27;;;;;;;3.40;3.20;;;;;;;;;;6246476;28;20052;-77
2022/09/12 02:14:29;;;;;;;8.02;7.15;;;;;;;;;;6254383;28;20111;-77
2022/09/12 02:17:31;;;;;;;4.53;4.10;;;;;;;;;;6256864;28;20021;-78
2022/09/12 02:20:38;;;;;;;17.33;3.70;;;;;;;;;;6260220;28;20444;-78
2022/09/12 02:23:42;;;;;;;4.13;3.75;;;;;;;;;;6279480;28;20369;-78
2022/09/12 02:26:51;;;;;;;5.80;5.28;;;;;;;;;;6256757;28;20411;-77
2022/09/12 02:29:52;;;;;;;4.35;3.95;;;;;;;;;;6252988;28;20053;-78
2022/09/12 02:32:52;;;;;;;5.27;4.83;;;;;;;;;;6264876;28;20044;-77
2022/09/12 02:35:54;;;;;;;6.10;5.18;;;;;;;;;;6272804;28;20020;-78
2022/09/12 02:38:55;;;;;;;8.85;6.63;;;;;;;;;;6267659;28;20472;-78
2022/09/12 02:41:57;;;;;;;12.27;8.40;;;;;;;;;;6269981;28;20087;-77
2022/09/12 02:44:57;;;;;;;5.15;4.78;;;;;;;;;;6251406;28;20021;-77
2022/09/12 02:48:01;;;;;;;5.13;4.63;;;;;;;;;;6270911;28;20028;-77
2022/09/12 02:51:01;;;;;;;5.05;4.53;;;;;;;;;;6253206;28;20051;-78
2022/09/12 02:54:02;;;;;;;18.67;8.40;;;;;;;;;;6280609;28;20465;-77
2022/09/12 02:57:04;;;;;;;5.47;5.03;;;;;;;;;;6273641;28;20466;-78
2022/09/12 03:00:06;;;;;;;17.00;3.83;;;;;;;;;;6271643;28;20095;-78
2022/09/12 03:03:25;;;;;;;6.00;5.57;;;;;;;;;;6260938;28;20496;-78
2022/09/12 03:06:32;;;;;;;6.20;5.70;;;;;;;;;;6258766;28;20058;-78
2022/09/12 03:09:44;;;;;;;4.60;4.20;;;;;;;;;;6272698;28;20029;-78
2022/09/12 03:13:07;;;;;;;5.20;4.85;;;;;;;;;;6284722;28;20024;-77
2022/09/12 03:16:10;;;;;;;13.63;6.78;;;;;;;;;;6261295;28;20017;-77
2022/09/12 03:19:19;;;;;;;8.13;7.35;;;;;;;;;;6269112;28;20589;-77
2022/09/12 03:22:28;;;;;;;18.67;4.28;;;;;;;;;;6284574;28;20016;-78
2022/09/12 03:25:34;;;;;;;2.20;2.10;;;;;;;;;;6255570;28;20127;-78
2022/09/12 03:28:35;;;;;;;2.22;2.13;;;;;;;;;;6247065;28;20108;-77
2022/09/12 03:31:35;;;;;;;9.25;4.32;;;;;;;;;;6262859;28;20037;-78
2022/09/12 03:34:36;;;;;;;7.80;4.68;;;;;;;;;;6255099;28;20101;-77
2022/09/12 03:37:36;;;;;;;15.13;7.10;;;;;;;;;;6256733;28;20461;-77
2022/09/12 03:40:37;;;;;;;7.33;5.10;;;;;;;;;;6269751;28;20020;-79
2022/09/12 03:43:37;;;;;;;7.23;5.83;;;;;;;;;;6265505;28;20019;-78
2022/09/12 03:46:37;;;;;;;4.40;4.17;;;;;;;;;;6275818;28;20384;-77
2022/09/12 03:49:37;;;;;;;7.23;5.07;;;;;;;;;;6259765;28;20009;-76
2022/09/12 03:52:37;;;;;;;6.60;4.40;;;;;;;;;;6285200;28;20032;-76
2022/09/12 03:55:38;;;;;;;5.97;4.37;;;;;;;;;;6276496;28;20024;-76
2022/09/12 03:58:38;;;;;;;20.60;5.30;;;;;;;;;;6243630;28;20025;-77
2022/09/12 04:01:39;;;;;;;6.30;5.77;;;;;;;;;;6263143;28;20020;-77
2022/09/12 04:04:40;;;;;;;2.70;2.55;;;;;;;;;;6259894;28;20033;-77
2022/09/12 04:07:41;;;;;;;4.07;3.78;;;;;;;;;;6256208;28;20027;-77
2022/09/12 04:10:41;;;;;;;19.90;6.97;;;;;;;;;;6245038;28;20022;-77
2022/09/12 04:13:42;;;;;;;11.10;8.73;;;;;;;;;;6271245;28;20017;-77
2022/09/12 04:16:43;;;;;;;9.43;5.95;;;;;;;;;;6271565;28;20017;-77
2022/09/12 04:19:43;;;;;;;9.77;5.82;;;;;;;;;;6255423;28;20025;-77
2022/09/12 04:22:43;;;;;;;5.77;5.13;;;;;;;;;;6264276;28;20532;-77
2022/09/12 04:25:43;;;;;;;4.87;4.33;;;;;;;;;;6265654;28;20016;-77
2022/09/12 04:28:44;;;;;;;6.53;6.03;;;;;;;;;;6249109;28;20013;-77
2022/09/12 04:31:45;;;;;;;6.23;3.77;;;;;;;;;;6270077;28;20137;-77
2022/09/12 04:34:45;;;;;;;4.63;4.27;;;;;;;;;;6254103;28;20762;-77
2022/09/12 04:37:46;;;;;;;6.70;6.17;;;;;;;;;;6251991;28;20025;-77
2022/09/12 04:40:46;;;;;;;5.83;4.63;;;;;;;;;;6251797;28;20027;-77
2022/09/12 04:43:47;;;;;;;5.28;4.82;;;;;;;;;;6268341;28;20326;-77
2022/09/12 04:46:47;;;;;;;4.83;3.23;;;;;;;;;;6261868;28;20044;-77
2022/09/12 04:49:47;;;;;;;3.90;3.13;;;;;;;;;;6254307;28;20021;-78
2022/09/12 04:52:48;;;;;;;3.85;3.53;;;;;;;;;;6240181;28;20423;-77
2022/09/12 04:55:49;;;;;;;3.53;3.33;;;;;;;;;;6241597;28;20009;-76
2022/09/12 04:58:49;;;;;;;3.83;3.53;;;;;;;;;;6244915;28;20432;-77
2022/09/12 05:01:49;;;;;;;3.53;3.27;;;;;;;;;;6250662;28;20045;-77
2022/09/12 05:04:49;;;;;;;5.63;5.13;;;;;;;;;;6267487;28;20025;-77
2022/09/12 05:07:51;;;;;;;3.33;3.03;;;;;;;;;;6254592;28;20020;-78
2022/09/12 05:10:51;;;;;;;3.58;3.38;;;;;;;;;;6267551;28;20564;-78
2022/09/12 05:13:51;;;;;;;3.05;2.85;;;;;;;;;;6246911;28;20483;-78
2022/09/12 05:16:52;;;;;;;4.07;3.87;;;;;;;;;;6273440;28;20024;-76
2022/09/12 05:19:52;;;;;;;4.80;4.33;;;;;;;;;;6270202;28;20012;-77
2022/09/12 05:22:52;;;;;;;10.57;4.33;;;;;;;;;;6269285;28;20013;-77
2022/09/12 05:25:54;;;;;;;5.53;4.47;;;;;;;;;;6256568;28;20460;-76
2022/09/12 05:28:54;;;;;;;;;;;;;;;;;;6255553;28;20107;-77
2022/09/12 05:31:54;;;;;;;8.40;6.25;;;;;;;;;;6265134;28;19982;-78
2022/09/12 05:34:55;;;;;;;11.13;7.37;;;;;;;;;;6254298;28;20041;-77
2022/09/12 05:37:55;;;;;;;2.30;2.15;;;;;;;;;;6251533;28;20017;-78
2022/09/12 05:41:02;;;;;;;6.37;4.10;;;;;;;;;;6252242;28;20387;-77
2022/09/12 05:44:04;;;;;;;7.28;4.15;;;;;;;;;;6271013;28;20417;-77
2022/09/12 05:47:04;;;;;;;3.42;3.08;;;;;;;;;;6277803;28;20470;-78
2022/09/12 05:50:09;;;;;;;3.90;3.17;;;;;;;;;;6247235;28;20048;-78
2022/09/12 05:53:09;;;;;;;5.03;4.50;;;;;;;;;;6270309;28;20021;-77
2022/09/12 05:56:14;;;;;;;8.37;7.50;;;;;;;;;;6261575;28;20095;-78
2022/09/12 05:59:16;;;;;;;3.83;3.30;;;;;;;;;;6258157;28;20069;-78
2022/09/12 06:02:17;;;;;;;11.45;5.55;;;;;;;;;;6259014;28;20040;-78
2022/09/12 06:05:17;;;;;;;5.50;4.97;;;;;;;;;;6259515;28;20635;-78
2022/09/12 06:08:17;;;;;;;7.97;4.03;;;;;;;;;;6258837;28;20330;-77
2022/09/12 06:11:19;;;;;;;3.72;2.53;;;;;;;;;;6263859;28;20112;-77
2022/09/12 06:14:21;;;;;;;2.35;2.25;;;;;;;;;;6260777;28;20100;-77
2022/09/12 06:17:21;;;;;;;3.63;3.33;;;;;;;;;;6262621;28;20032;-78
2022/09/12 06:20:21;;;;;;;5.00;2.93;;;;;;;;;;6274391;28;20020;-78
2022/09/12 06:23:21;;;;;;;3.28;2.97;;;;;;;;;;6257095;28;20025;-78
2022/09/12 06:26:24;;;;;;;4.00;3.73;;;;;;;;;;6252368;28;20025;-78
2022/09/12 06:29:24;;;;;;;1.55;1.55;;;;;;;;;;6262993;28;20018;-78
2022/09/12 06:32:24;;;;;;;3.97;3.77;;;;;;;;;;6259707;28;20074;-78
2022/09/12 06:35:25;;;;;;;9.73;3.92;;;;;;;;;;6265062;28;20381;-78
2022/09/12 06:38:25;;;;;;;9.43;2.83;;;;;;;;;;6261879;28;20021;-78
2022/09/12 06:41:26;;;;;;;2.65;1.98;;;;;;;;;;6251687;28;20055;-78
2022/09/12 06:44:26;;;;;;;3.63;3.33;;;;;;;;;;6263360;28;20485;-78
2022/09/12 06:47:27;;;;;;;6.53;2.73;;;;;;;;;;6280864;28;20028;-78
2022/09/12 06:50:27;;;;;;;3.30;3.00;;;;;;;;;;6270033;28;20122;-78
2022/09/12 06:53:27;;;;;;;2.30;2.20;;;;;;;;;;6267113;28;20512;-78
2022/09/12 06:56:28;;;;;;;1.20;1.17;;;;;;;;;;6262082;28;20030;-78
2022/09/12 06:59:29;;;;;;;1.30;1.20;;;;;;;;;;6258248;28;20086;-78
2022/09/12 07:02:29;;;;;;;2.27;2.17;;;;;;;;;;6269600;28;20386;-79
2022/09/12 07:05:29;;;;;;;0.85;0.85;;;;;;;;;;6251127;28;20028;-79
2022/09/12 07:08:30;;;;;;;7.70;2.50;;;;;;;;;;6275818;28;20024;-78
2022/09/12 07:11:32;;;;;;;1.95;1.85;;;;;;;;;;6273696;28;20449;-79
2022/09/12 07:14:32;;;;;;;1.52;1.17;;;;;;;;;;6259381;28;20021;-78
2022/09/12 07:17:32;;;;;;;6.53;1.33;;;;;;;;;;6249421;28;20113;-78
2022/09/12 07:20:33;;;;;;;1.30;1.30;;;;;;;;;;6265504;28;20032;-78
2022/09/12 07:23:33;;;;;;;3.00;1.77;;;;;;;;;;6275836;28;20070;-79
2022/09/12 07:26:33;;;;;;;2.08;0.70;;;;;;;;;;6276926;28;20028;-78
2022/09/12 07:29:34;;;;;;;0.67;0.67;;;;;;;;;;6256739;28;20028;-78
2022/09/12 07:32:34;;;;;;;3.03;0.93;;;;;;;;;;6254362;28;20120;-78
2022/09/12 07:35:34;;;;;;;3.65;1.13;;;;;;;;;;6267869;28;20021;-78
2022/09/12 07:38:35;;;;;;;1.33;1.23;;;;;;;;;;6275355;28;20103;-78
2022/09/12 07:41:35;;;;;;;1.10;1.00;;;;;;;;;;6281647;28;20028;-79
2022/09/12 07:44:35;;;;;;;1.40;1.35;;;;;;;;;;6281766;28;20029;-79
2022/09/12 07:47:36;;;;;;;0.65;0.63;;;;;;;;;;6275346;28;20039;-79
2022/09/12 07:50:36;;;;;;;0.67;0.67;;;;;;;;;;6271720;28;20024;-79
2022/09/12 07:53:38;;;;;;;1.00;1.00;;;;;;;;;;6277492;28;20021;-78
2022/09/12 07:56:39;;;;;;;0.45;0.45;;;;;;;;;;6273548;28;20403;-78
2022/09/12 07:59:41;;;;;;;2.83;1.85;;;;;;;;;;6269890;28;20024;-78
2022/09/12 08:02:41;;;;;;;1.17;0.82;;;;;;;;;;6258872;28;20059;-78
2022/09/12 08:05:41;;;;;;;1.60;1.10;;;;;;;;;;6256738;28;20017;-78
2022/09/12 08:08:42;;;;;;;1.77;1.67;;;;;;;;;;6258499;28;20026;-79
2022/09/12 08:11:42;;;;;;;1.80;0.83;;;;;;;;;;6263525;28;20099;-79
2022/09/12 08:14:43;;;;;;;0.25;0.25;;;;;;;;;;6248300;28;20020;-79
2022/09/12 08:17:43;;;;;;;0.52;0.52;;;;;;;;;;6261442;28;20143;-79
2022/09/12 08:20:43;;;;;;;0.33;0.33;;;;;;;;;;6242895;28;20035;-79
2022/09/12 08:23:44;;;;;;;0.10;0.10;;;;;;;;;;6247669;28;20045;-79
2022/09/12 08:26:44;;;;;;;1.50;1.40;;;;;;;;;;6240302;28;20400;-80
2022/09/12 08:29:45;;;;;;;0.77;0.77;;;;;;;;;;6263806;28;20107;-79
2022/09/12 08:32:45;;;;;;;1.35;0.60;;;;;;;;;;6277408;28;20032;-79
2022/09/12 08:35:46;;;;;;;0.80;0.80;;;;;;;;;;6262132;28;20017;-80
2022/09/12 08:38:47;;;;;;;0.67;0.67;;;;;;;;;;6271029;28;20020;-79
2022/09/12 08:41:49;;;;;;;0.10;0.10;;;;;;;;;;6247491;28;20021;-79
2022/09/12 08:44:52;;;;;;;0.85;0.85;;;;;;;;;;6262526;28;20022;-79
2022/09/12 08:47:54;;;;;;;1.60;0.93;;;;;;;;;;6257639;28;20106;-80
2022/09/12 08:50:54;;;;;;;0.50;0.50;;;;;;;;;;6266082;28;20013;-79
2022/09/12 08:53:55;;;;;;;0.40;0.40;;;;;;;;;;6288075;28;20012;-79
2022/09/12 08:57:03;;;;;;;0.73;0.73;;;;;;;;;;6254301;28;20021;-79
2022/09/12 09:00:05;;;;;;;0.52;0.52;;;;;;;;;;6258536;28;20021;-79
2022/09/12 09:03:25;;;;;;;0.65;0.65;;;;;;;;;;6256718;28;20024;-80
2022/09/12 09:06:41;;;;;;;1.05;1.00;;;;;;;;;;6248165;28;20028;-79
2022/09/12 09:10:06;;;;;;;1.17;0.55;;;;;;;;;;6255787;28;20024;-79
2022/09/12 09:16:46;;;;;;;0.35;0.35;;;;;;;;;;6275596;28;20052;-79
2022/09/12 09:19:52;;;;;;;0.38;0.38;;;;;;;;;;6264262;28;20059;-79
2022/09/12 09:22:59;;;;;;;0.10;0.10;;;;;;;;;;6276033;28;20028;-79
2022/09/12 09:26:13;;;;;;;1.40;1.30;;;;;;;;;;6248847;28;20511;-79
2022/09/12 09:29:16;;;;;;;0.50;0.50;;;;;;;;;;6277769;28;20017;-79
2022/09/12 09:32:22;;;;;;;0.63;0.63;;;;;;;;;;6275549;28;20040;-79
2022/09/12 09:35:31;;;;;;;0.73;0.73;;;;;;;;;;6256873;28;20064;-79
2022/09/12 09:38:46;;;;;;;0.80;0.80;;;;;;;;;;6268477;28;20025;-79
2022/09/12 09:41:57;;;;;;;0.40;0.40;;;;;;;;;;6258563;28;20033;-79
2022/09/12 09:44:58;;;;;;;0.95;0.95;;;;;;;;;;6243936;28;20040;-79
2022/09/12 09:48:12;;;;;;;1.80;0.50;;;;;;;;;;6265841;28;20025;-79
2022/09/12 09:51:14;;;;;;;0.20;0.20;;;;;;;;;;6267415;28;20488;-78
2022/09/12 09:54:19;;;;;;;1.95;0.98;;;;;;;;;;6277478;28;20096;-79
2022/09/12 09:57:34;;;;;;;1.48;1.35;;;;;;;;;;6249546;28;20435;-79
2022/09/12 10:00:37;;;;;;;0.05;0.05;;;;;;;;;;6269155;28;20021;-79
2022/09/12 10:03:38;;;;;;;1.08;0.90;;;;;;;;;;6263789;28;20082;-79
2022/09/12 10:06:39;;;;;;;0.53;0.47;;;;;;;;;;6250084;28;20022;-79
2022/09/12 10:09:40;;;;;;;0.63;0.63;;;;;;;;;;6260063;28;20016;-79
2022/09/12 10:12:40;;;;;;;0.30;0.30;;;;;;;;;;6264091;28;20017;-79
2022/09/12 10:15:54;;;;;;;0.53;0.53;;;;;;;;;;6263605;28;20023;-79
2022/09/12 10:18:55;;;;;;;0.40;0.40;;;;;;;;;;6242842;28;20014;-80
2022/09/12 10:21:55;;;;;;;0.68;0.65;;;;;;;;;;6270310;28;20075;-79
2022/09/12 10:24:57;;;;;;;1.27;1.13;;;;;;;;;;6271671;28;20025;-79
2022/09/12 10:27:59;;;;;;;4.20;1.92;;;;;;;;;;6248567;28;20028;-79
2022/09/12 10:31:01;;;;;;;0.45;0.45;;;;;;;;;;6274145;28;20123;-79
2022/09/12 10:34:01;;;;;;;1.50;1.38;;;;;;;;;;6264844;28;20018;-79
2022/09/12 10:37:04;;;;;;;0.47;0.47;;;;;;;;;;6261299;28;20017;-79
2022/09/12 10:40:05;;;;;;;1.35;1.13;;;;;;;;;;6251205;28;20449;-79
2022/09/12 10:43:24;;;;;;;1.50;1.38;;;;;;;;;;6258973;28;20032;-79
2022/09/12 10:46:28;;;;;;;0.75;0.75;;;;;;;;;;6258555;28;20480;-79
2022/09/12 10:49:36;;;;;;;10.88;3.50;;;;;;;;;;6250161;28;20021;-79
2022/09/12 10:52:37;;;;;;;2.75;1.63;;;;;;;;;;6265371;28;20056;-79
2022/09/12 10:55:40;;;;;;;0.90;0.90;;;;;;;;;;6263708;28;20021;-79
2022/09/12 10:58:59;;;;;;;1.15;1.15;;;;;;;;;;6247944;28;20013;-79
2022/09/12 11:02:00;;;;;;;0.25;0.25;;;;;;;;;;6275896;28;20024;-79
2022/09/12 11:05:00;;;;;;;1.05;0.52;;;;;;;;;;6260261;28;20121;-79
2022/09/12 11:08:06;;;;;;;1.45;1.35;;;;;;;;;;6270127;28;20017;-79
2022/09/12 11:11:25;;;;;;;0.50;0.50;;;;;;;;;;6267203;28;20420;-79
2022/09/12 11:14:42;;;;;;;0.63;0.63;;;;;;;;;;6266387;28;20066;-79
2022/09/12 11:17:42;;;;;;;2.83;0.63;;;;;;;;;;6266619;28;20340;-79
2022/09/12 11:21:01;;;;;;;0.85;0.85;;;;;;;;;;6250169;28;20028;-79
2022/09/12 11:24:11;;;;;;;2.83;2.10;;;;;;;;;;6247648;28;20108;-79
2022/09/12 11:27:26;;;;;;;0.90;0.88;;;;;;;;;;6263354;28;20064;-79
2022/09/12 11:30:30;;;;;;;4.68;1.63;;;;;;;;;;6247445;28;20110;-79
2022/09/12 11:33:33;;;;;;;1.55;1.45;;;;;;;;;;6271172;28;20543;-79
2022/09/12 11:36:33;;;;;;;2.00;1.90;;;;;;;;;;6245026;28;20018;-79
2022/09/12 11:39:37;;;;;;;0.73;0.73;;;;;;;;;;6268388;28;20017;-79
2022/09/12 11:42:38;;;;;;;1.25;0.85;;;;;;;;;;6260374;28;20071;-79
2022/09/12 11:45:40;;;;;;;1.02;0.90;;;;;;;;;;6270240;28;20086;-79
2022/09/12 11:48:45;;;;;;;0.45;0.45;;;;;;;;;;6262318;28;20559;-79
2022/09/12 11:52:09;;;;;;;0.30;0.30;;;;;;;;;;6256125;28;20021;-79
2022/09/12 11:55:17;;;;;;;0.35;0.20;;;;;;;;;;6228349;28;20025;-79
2022/09/12 11:58:20;;;;;;;0.20;0.20;;;;;;;;;;6262606;28;20560;-79
2022/09/12 12:01:22;;;;;;;0.70;0.70;;;;;;;;;;6260256;28;20025;-79
2022/09/12 12:04:24;;;;;;;0.47;0.38;;;;;;;;;;6259416;28;20029;-79
2022/09/12 12:07:25;;;;;;;1.17;1.17;;;;;;;;;;6261942;28;20488;-79
2022/09/12 12:10:29;;;;;;;1.27;1.17;;;;;;;;;;6263599;28;20017;-80
2022/09/12 12:13:50;;;;;;;0.20;0.20;;;;;;;;;;6267150;28;20123;-79
2022/09/12 12:16:50;;;;;;;0.47;0.47;;;;;;;;;;6251148;28;20233;-79
2022/09/12 12:19:58;;;;;;;0.40;0.40;;;;;;;;;;6248882;28;20424;-79
2022/09/12 12:22:59;;;;;;;0.45;0.45;;;;;;;;;;6263000;28;20361;-79
2022/09/12 12:26:03;;;;;;;0.60;0.50;;;;;;;;;;6260788;28;20025;-79
2022/09/12 12:29:03;;;;;;;0.95;0.95;;;;;;;;;;6249704;28;20444;-79
2022/09/12 12:32:04;;;;;;;0.20;0.20;;;;;;;;;;6249147;28;20041;-79
2022/09/12 12:35:23;;;;;;;0.93;0.85;;;;;;;;;;6259432;28;20023;-79
2022/09/12 12:38:26;;;;;;;0.73;0.73;;;;;;;;;;6254859;28;20075;-80
2022/09/12 12:41:26;;;;;;;0.80;0.80;;;;;;;;;;6268524;28;20025;-80
2022/09/12 12:44:48;;;;;;;2.25;1.45;;;;;;;;;;6274575;28;20037;-79
2022/09/12 12:47:48;;;;;;;;;;;;;;;;;;6266745;28;20147;-79
2022/09/12 12:50:49;;;;;;;0.50;0.50;;;;;;;;;;6265603;28;19955;-79
2022/09/12 12:53:50;;;;;;;0.40;0.40;;;;;;;;;;6251697;28;20063;-79
2022/09/12 12:56:59;;;;;;;0.65;0.65;;;;;;;;;;6271808;28;20016;-79
2022/09/12 13:00:17;;;;;;;0.75;0.75;;;;;;;;;;6261380;28;20044;-80
2022/09/12 13:03:27;;;;;;;2.47;1.63;;;;;;;;;;6262949;28;20063;-80
2022/09/12 13:06:30;;;;;;;0.77;0.73;;;;;;;;;;6285940;28;20033;-80
2022/09/12 13:09:32;;;;;;;2.75;1.35;;;;;;;;;;6270300;28;20021;-80
2022/09/12 13:12:34;;;;;;;0.90;0.80;;;;;;;;;;6266494;28;20526;-80
2022/09/12 13:15:34;;;;;;;0.38;0.38;;;;;;;;;;6265024;28;20420;-80
2022/09/12 13:18:44;;;;;;;0.20;0.20;;;;;;;;;;6260719;28;20021;-80
2022/09/12 13:21:54;;;;;;;0.60;0.60;;;;;;;;;;6264315;28;20484;-79
2022/09/12 13:24:54;;;;;;;0.30;0.30;;;;;;;;;;6259225;28;20423;-80
2022/09/12 13:27:58;;;;;;;0.50;0.50;;;;;;;;;;6284089;28;20026;-80
2022/09/12 13:31:00;;;;;;;0.40;0.40;;;;;;;;;;6274707;28;20039;-80
2022/09/12 13:34:03;;;;;;;2.35;0.68;;;;;;;;;;6270075;28;20017;-80
2022/09/12 13:37:25;;;;;;;0.43;0.40;;;;;;;;;;6257032;28;20099;-80
2022/09/12 13:40:36;;;;;;;2.17;0.63;;;;;;;;;;6262594;28;20014;-80
2022/09/12 13:43:38;;;;;;;0.10;0.10;;;;;;;;;;6255970;28;20021;-80
2022/09/12 13:46:39;;;;;;;0.28;0.28;;;;;;;;;;6263905;28;20025;-80
2022/09/12 13:49:40;;;;;;;0.38;0.38;;;;;;;;;;6260110;28;20031;-80
2022/09/12 13:52:44;;;;;;;2.95;0.90;;;;;;;;;;6277336;28;20017;-80
2022/09/12 13:55:46;;;;;;;0.25;0.25;;;;;;;;;;6249083;28;20464;-80
2022/09/12 13:58:59;;;;;;;0.35;0.35;;;;;;;;;;6279976;28;20364;-80
2022/09/12 14:02:00;;;;;;;0.50;0.50;;;;;;;;;;6274856;28;20024;-80
2022/09/12 14:05:09;;;;;;;1.77;1.67;;;;;;;;;;6255396;28;20021;-80
2022/09/12 14:08:13;;;;;;;0.32;0.32;;;;;;;;;;6245342;28;20025;-80
2022/09/12 14:11:24;;;;;;;2.70;0.43;;;;;;;;;;6255413;28;20073;-80
2022/09/12 14:14:26;;;;;;;;;;;;;;;;;;6241149;28;20025;-80
2022/09/12 14:17:28;;;;;;;;;;;;;;;;;;6262762;28;19920;-80
2022/09/12 14:20:31;;;;;;;1.15;0.40;;;;;;;;;;6275935;28;19913;-80
2022/09/12 14:23:32;;;;;;;0.90;0.60;;;;;;;;;;6234558;28;20310;-80
2022/09/12 14:26:33;;;;;;;1.55;1.42;;;;;;;;;;6274531;28;20029;-80
2022/09/12 14:29:34;;;;;;;0.50;0.50;;;;;;;;;;6264380;28;20381;-80
2022/09/12 14:32:34;;;;;;;0.17;0.17;;;;;;;;;;6265953;28;20025;-81
2022/09/12 14:35:39;;;;;;;0.88;0.88;;;;;;;;;;6273806;28;20029;-79
2022/09/12 14:38:41;;;;;;;0.32;0.32;;;;;;;;;;6267676;28;20100;-80
2022/09/12 14:41:42;;;;;;;0.20;0.20;;;;;;;;;;6261784;28;20023;-80
2022/09/12 14:44:48;;;;;;;0.63;0.63;;;;;;;;;;6285152;28;20033;-80
2022/09/12 14:47:49;;;;;;;0.93;0.93;;;;;;;;;;6250468;28;20278;-80
2022/09/12 14:50:51;;;;;;;1.10;0.77;;;;;;;;;;6270386;28;20449;-80
2022/09/12 14:53:51;;;;;;;1.00;0.60;;;;;;;;;;6262404;28;20032;-80
2022/09/12 14:56:55;;;;;;;0.97;0.93;;;;;;;;;;6270180;28;20021;-81
2022/09/12 15:00:08;;;;;;;1.85;1.23;;;;;;;;;;6262901;28;20016;-80
2022/09/12 15:03:23;;;;;;;0.68;0.68;;;;;;;;;;6258387;28;20012;-79
2022/09/12 15:06:30;;;;;;;6.13;2.22;;;;;;;;;;6256454;28;20025;-80
2022/09/12 15:09:31;;;;;;;0.63;0.63;;;;;;;;;;6263771;28;20021;-80
2022/09/12 15:12:31;;;;;;;0.60;0.60;;;;;;;;;;6284157;28;20048;-80
2022/09/12 15:15:31;;;;;;;0.83;0.83;;;;;;;;;;6259990;28;20431;-80
2022/09/12 15:18:31;;;;;;;0.93;0.93;;;;;;;;;;6273919;28;20111;-81
2022/09/12 15:21:32;;;;;;;0.43;0.43;;;;;;;;;;6271283;28;20041;-80
2022/09/12 15:24:32;;;;;;;1.23;1.10;;;;;;;;;;6280003;28;20029;-80
2022/09/12 15:27:32;;;;;;;13.32;1.27;;;;;;;;;;6263578;28;20017;-81
2022/09/12 15:30:32;;;;;;;1.30;1.25;;;;;;;;;;6285708;28;20072;-80
2022/09/12 15:33:33;;;;;;;0.30;0.30;;;;;;;;;;6267714;28;20013;-82
2022/09/12 15:36:33;;;;;;;1.93;1.80;;;;;;;;;;6256281;28;20021;-79
2022/09/12 15:39:33;;;;;;;0.50;0.50;;;;;;;;;;6259268;28;20009;-80
2022/09/12 15:42:33;;;;;;;2.75;2.03;;;;;;;;;;6279594;28;20027;-81
2022/09/12 15:45:34;;;;;;;2.23;2.07;;;;;;;;;;6276319;28;20161;-80
2022/09/12 15:48:34;;;;;;;6.00;1.07;;;;;;;;;;6272521;28;20417;-80
2022/09/12 15:51:35;;;;;;;0.43;0.43;;;;;;;;;;6273854;28;20391;-80
2022/09/12 15:54:35;;;;;;;2.00;1.10;;;;;;;;;;6285325;28;20013;-81
2022/09/12 15:57:36;;;;;;;1.47;0.77;;;;;;;;;;6291045;28;20031;-80
2022/09/12 16:00:36;;;;;;;2.63;2.42;;;;;;;;;;6264942;28;20017;-81
2022/09/12 16:03:36;;;;;;;1.73;1.67;;;;;;;;;;6287719;28;20020;-81
2022/09/12 16:06:36;;;;;;;1.23;1.20;;;;;;;;;;6264732;28;20017;-81
2022/09/12 16:09:37;;;;;;;1.57;0.87;;;;;;;;;;6279300;28;20033;-80
2022/09/12 16:12:37;;;;;;;0.40;0.40;;;;;;;;;;6277998;28;20123;-81
2022/09/12 16:15:37;;;;;;;4.70;2.30;;;;;;;;;;6281225;28;20013;-81
2022/09/12 16:18:41;;;;;;;0.57;0.57;;;;;;;;;;6282337;28;20051;-81
2022/09/12 16:21:41;;;;;;;10.65;2.10;;;;;;;;;;6276841;28;20020;-81
2022/09/12 16:24:41;;;;;;;1.38;0.77;;;;;;;;;;6269199;28;20040;-81
2022/09/12 16:27:41;;;;;;;1.13;1.03;;;;;;;;;;6257048;28;20496;-81
2022/09/12 16:30:42;;;;;;;0.73;0.73;;;;;;;;;;6281871;28;20045;-81
2022/09/12 16:33:42;;;;;;;3.00;2.77;;;;;;;;;;6245157;28;20588;-81
2022/09/12 16:36:44;;;;;;;1.10;1.10;;;;;;;;;;6268679;28;20456;-81
2022/09/12 16:39:44;;;;;;;;;;;;;;;;;;6281756;28;20025;-81
2022/09/12 16:42:45;;;;;;;2.67;2.28;;;;;;;;;;6270336;28;20053;-81
2022/09/12 16:45:45;;;;;;;0.87;0.70;;;;;;;;;;6247724;28;20029;-82
2022/09/12 16:48:50;;;;;;;3.10;2.07;;;;;;;;;;6259842;28;20052;-81
2022/09/12 16:51:50;;;;;;;2.10;0.95;;;;;;;;;;6282646;28;20028;-82
2022/09/12 16:54:50;;;;;;;1.75;1.65;;;;;;;;;;6267931;28;20018;-81
2022/09/12 16:57:50;;;;;;;9.85;3.05;;;;;;;;;;6265803;28;20021;-81
2022/09/12 17:01:11;;;;;;;1.00;0.73;;;;;;;;;;6271622;28;20067;-81
2022/09/12 17:04:11;;;;;;;1.92;1.80;;;;;;;;;;6254034;28;20483;-82
2022/09/12 17:07:11;;;;;;;1.60;1.50;;;;;;;;;;6251726;28;20016;-81
2022/09/12 17:10:11;;;;;;;1.15;1.13;;;;;;;;;;6254361;28;20029;-81
2022/09/12 17:13:12;;;;;;;0.23;0.23;;;;;;;;;;6251473;28;20017;-81
2022/09/12 17:16:12;;;;;;;1.00;1.00;;;;;;;;;;6273021;28;20116;-83
2022/09/12 17:19:14;;;;;;;1.17;1.10;;;;;;;;;;6264503;28;20372;-79
2022/09/12 17:22:15;;;;;;;3.03;0.95;;;;;;;;;;6267027;28;20013;-79
2022/09/12 17:25:15;;;;;;;2.83;1.03;;;;;;;;;;6251534;28;20517;-81
2022/09/12 17:28:15;;;;;;;0.77;0.77;;;;;;;;;;6245989;28;20041;-81
2022/09/12 17:31:16;;;;;;;0.43;0.43;;;;;;;;;;6264427;28;20286;-82
2022/09/12 17:34:16;;;;;;;2.57;2.37;;;;;;;;;;6250856;28;20016;-81
2022/09/12 17:37:17;;;;;;;2.37;1.43;;;;;;;;;;6259432;28;20491;-81
2022/09/12 17:40:17;;;;;;;1.27;1.10;;;;;;;;;;6269810;28;20107;-82
2022/09/12 17:43:17;;;;;;;0.93;0.93;;;;;;;;;;6250947;28;20039;-81
2022/09/12 17:46:18;;;;;;;1.55;1.30;;;;;;;;;;6259908;28;20013;-81
2022/09/12 17:49:20;;;;;;;0.40;0.40;;;;;;;;;;6255340;28;20343;-81
2022/09/12 17:52:20;;;;;;;0.85;0.85;;;;;;;;;;6254218;28;20013;-81
2022/09/12 17:55:21;;;;;;;0.77;0.77;;;;;;;;;;6263709;28;20099;-81
2022/09/12 17:58:21;;;;;;;1.13;1.13;;;;;;;;;;6267489;28;20029;-81
2022/09/12 18:04:40;;;;;;;6.47;3.55;;;;;;;;;;6263207;28;20021;-81
2022/09/12 18:07:40;;;;;;;6.20;2.63;;;;;;;;;;6264910;28;20529;-82
2022/09/12 18:10:41;;;;;;;1.65;1.55;;;;;;;;;;6274737;28;20029;-82
2022/09/12 18:13:41;;;;;;;2.13;1.97;;;;;;;;;;6267720;28;20021;-81
2022/09/12 18:16:42;;;;;;;3.03;2.83;;;;;;;;;;6274082;28;20074;-81
2022/09/12 18:19:42;;;;;;;6.97;6.37;;;;;;;;;;6276641;28;20032;-81
2022/09/12 18:22:42;;;;;;;6.87;5.90;;;;;;;;;;6278312;28;20498;-81
2022/09/12 18:25:43;;;;;;;4.57;4.03;;;;;;;;;;6268347;28;20023;-82